sensor_id;sensor_type;location;lat;lon;timestamp;P1;durP1;ratioP1;P2;durP2;ratioP2
10529;SDS011;5313;48.834;9.228;2022-11-20T00:02:21;25.53;;;12.00;;
10529;SDS011;5313;48.834;9.228;2022-11-20T00:04:46;24.93;;;13.43;;
10529;SDS011;5313;48.834;9.228;2022-11-20T00:07:12;27.37;;;13.27;;
10529;SDS011;5313;48.834;9.228;2022-11-20T00:09:37;36.40;;;13.93;;
10529;SDS011;5313;48.834;9.228;2022-11-20T00:12:03;31.47;;;13.53;;
10529;SDS011;5313;48.834;9.228;2022-11-20T00:14:29;26.37;;;12.67;;
10529;SDS011;5313;48.834;9.228;2022-11-20T00:16:54;23.60;;;13.03;;
10529;SDS011;5313;48.834;9.228;2022-11-20T00:19:20;24.80;;;12.63;;
10529;SDS011;5313;48.834;9.228;2022-11-20T00:21:45;24.63;;;13.10;;
10529;SDS011;5313;48.834;9.228;2022-11-20T00:24:11;31.63;;;13.20;;
10529;SDS011;5313;48.834;9.228;2022-11-20T00:26:36;24.57;;;12.67;;
10529;SDS011;5313;48.834;9.228;2022-11-20T00:29:02;29.53;;;13.10;;
10529;SDS011;5313;48.834;9.228;2022-11-20T00:31:28;26.00;;;13.40;;
10529;SDS011;5313;48.834;9.228;2022-11-20T00:33:54;37.83;;;13.37;;
10529;SDS011;5313;48.834;9.228;2022-11-20T00:36:21;25.93;;;12.30;;
10529;SDS011;5313;48.834;9.228;2022-11-20T00:38:52;25.10;;;13.10;;
10529;SDS011;5313;48.834;9.228;2022-11-20T00:41:18;25.13;;;12.80;;
10529;SDS011;5313;48.834;9.228;2022-11-20T00:43:44;26.23;;;13.83;;
10529;SDS011;5313;48.834;9.228;2022-11-20T00:46:14;30.23;;;13.73;;
10529;SDS011;5313;48.834;9.228;2022-11-20T00:48:41;25.77;;;13.17;;
10529;SDS011;5313;48.834;9.228;2022-11-20T00:51:07;25.20;;;13.23;;
10529;SDS011;5313;48.834;9.228;2022-11-20T00:53:37;25.00;;;13.97;;
10529;SDS011;5313;48.834;9.228;2022-11-20T00:56:04;28.13;;;13.93;;
10529;SDS011;5313;48.834;9.228;2022-11-20T00:58:35;27.17;;;14.23;;
10529;SDS011;5313;48.834;9.228;2022-11-20T01:03:42;24.20;;;13.10;;
10529;SDS011;5313;48.834;9.228;2022-11-20T01:06:18;24.87;;;13.57;;
10529;SDS011;5313;48.834;9.228;2022-11-20T01:08:44;27.30;;;13.67;;
10529;SDS011;5313;48.834;9.228;2022-11-20T01:11:11;20.93;;;11.30;;
10529;SDS011;5313;48.834;9.228;2022-11-20T01:13:40;25.17;;;13.13;;
10529;SDS011;5313;48.834;9.228;2022-11-20T01:16:23;24.63;;;12.90;;
10529;SDS011;5313;48.834;9.228;2022-11-20T01:18:51;24.67;;;12.60;;
10529;SDS011;5313;48.834;9.228;2022-11-20T01:21:20;24.37;;;12.77;;
10529;SDS011;5313;48.834;9.228;2022-11-20T01:23:47;21.93;;;12.10;;
10529;SDS011;5313;48.834;9.228;2022-11-20T01:26:14;26.37;;;12.87;;
10529;SDS011;5313;48.834;9.228;2022-11-20T01:28:42;21.27;;;12.03;;
10529;SDS011;5313;48.834;9.228;2022-11-20T01:31:24;21.40;;;11.67;;
10529;SDS011;5313;48.834;9.228;2022-11-20T01:33:55;19.60;;;10.83;;
10529;SDS011;5313;48.834;9.228;2022-11-20T01:36:23;18.20;;;11.03;;
10529;SDS011;5313;48.834;9.228;2022-11-20T01:38:54;21.47;;;12.33;;
10529;SDS011;5313;48.834;9.228;2022-11-20T01:41:21;18.20;;;10.40;;
10529;SDS011;5313;48.834;9.228;2022-11-20T01:44:06;16.77;;;10.20;;
10529;SDS011;5313;48.834;9.228;2022-11-20T01:46:32;19.17;;;11.23;;
10529;SDS011;5313;48.834;9.228;2022-11-20T01:49:20;18.00;;;10.60;;
10529;SDS011;5313;48.834;9.228;2022-11-20T01:51:52;19.90;;;11.00;;
10529;SDS011;5313;48.834;9.228;2022-11-20T01:54:48;16.40;;;10.40;;
10529;SDS011;5313;48.834;9.228;2022-11-20T01:57:23;16.03;;;10.17;;
10529;SDS011;5313;48.834;9.228;2022-11-20T01:59:52;19.70;;;11.53;;
10529;SDS011;5313;48.834;9.228;2022-11-20T02:02:24;18.40;;;11.10;;
10529;SDS011;5313;48.834;9.228;2022-11-20T02:04:50;16.80;;;11.20;;
10529;SDS011;5313;48.834;9.228;2022-11-20T02:07:19;18.93;;;11.33;;
10529;SDS011;5313;48.834;9.228;2022-11-20T02:09:45;19.63;;;11.37;;
10529;SDS011;5313;48.834;9.228;2022-11-20T02:12:11;20.40;;;11.87;;
10529;SDS011;5313;48.834;9.228;2022-11-20T02:14:57;18.10;;;10.60;;
10529;SDS011;5313;48.834;9.228;2022-11-20T02:17:23;19.83;;;11.23;;
10529;SDS011;5313;48.834;9.228;2022-11-20T02:19:49;20.60;;;12.20;;
10529;SDS011;5313;48.834;9.228;2022-11-20T02:22:18;19.00;;;11.10;;
10529;SDS011;5313;48.834;9.228;2022-11-20T02:24:53;20.13;;;11.77;;
10529;SDS011;5313;48.834;9.228;2022-11-20T02:27:19;20.63;;;10.50;;
10529;SDS011;5313;48.834;9.228;2022-11-20T02:29:56;12.67;;;7.73;;
10529;SDS011;5313;48.834;9.228;2022-11-20T02:32:31;10.73;;;6.93;;
10529;SDS011;5313;48.834;9.228;2022-11-20T02:35:06;8.77;;;5.90;;
10529;SDS011;5313;48.834;9.228;2022-11-20T02:37:33;8.40;;;5.43;;
10529;SDS011;5313;48.834;9.228;2022-11-20T02:40:02;6.30;;;4.37;;
10529;SDS011;5313;48.834;9.228;2022-11-20T02:42:28;7.83;;;4.87;;
10529;SDS011;5313;48.834;9.228;2022-11-20T02:44:53;5.23;;;4.27;;
10529;SDS011;5313;48.834;9.228;2022-11-20T02:47:18;8.37;;;4.93;;
10529;SDS011;5313;48.834;9.228;2022-11-20T02:49:44;7.87;;;5.27;;
10529;SDS011;5313;48.834;9.228;2022-11-20T02:52:10;8.90;;;5.27;;
10529;SDS011;5313;48.834;9.228;2022-11-20T02:54:35;7.17;;;4.17;;
10529;SDS011;5313;48.834;9.228;2022-11-20T02:57:01;6.90;;;4.60;;
10529;SDS011;5313;48.834;9.228;2022-11-20T02:59:26;6.67;;;4.47;;
10529;SDS011;5313;48.834;9.228;2022-11-20T03:01:52;6.67;;;4.67;;
10529;SDS011;5313;48.834;9.228;2022-11-20T03:04:17;7.70;;;4.60;;
10529;SDS011;5313;48.834;9.228;2022-11-20T03:06:43;8.67;;;5.37;;
10529;SDS011;5313;48.834;9.228;2022-11-20T03:09:08;6.20;;;4.60;;
10529;SDS011;5313;48.834;9.228;2022-11-20T03:11:34;6.27;;;4.33;;
10529;SDS011;5313;48.834;9.228;2022-11-20T03:14:05;6.93;;;4.37;;
10529;SDS011;5313;48.834;9.228;2022-11-20T03:16:31;6.33;;;4.00;;
10529;SDS011;5313;48.834;9.228;2022-11-20T03:18:57;7.43;;;4.10;;
10529;SDS011;5313;48.834;9.228;2022-11-20T03:21:23;4.83;;;3.47;;
10529;SDS011;5313;48.834;9.228;2022-11-20T03:23:48;4.03;;;3.10;;
10529;SDS011;5313;48.834;9.228;2022-11-20T03:26:15;4.40;;;2.77;;
10529;SDS011;5313;48.834;9.228;2022-11-20T03:28:47;3.37;;;2.57;;
10529;SDS011;5313;48.834;9.228;2022-11-20T03:31:17;4.80;;;2.53;;
10529;SDS011;5313;48.834;9.228;2022-11-20T03:33:45;5.03;;;2.60;;
10529;SDS011;5313;48.834;9.228;2022-11-20T03:36:11;3.33;;;2.37;;
10529;SDS011;5313;48.834;9.228;2022-11-20T03:38:38;3.43;;;2.43;;
10529;SDS011;5313;48.834;9.228;2022-11-20T03:41:09;4.67;;;2.30;;
10529;SDS011;5313;48.834;9.228;2022-11-20T03:43:37;3.60;;;2.60;;
10529;SDS011;5313;48.834;9.228;2022-11-20T03:46:03;4.10;;;2.90;;
10529;SDS011;5313;48.834;9.228;2022-11-20T03:48:29;3.97;;;3.03;;
10529;SDS011;5313;48.834;9.228;2022-11-20T03:51:07;4.27;;;2.73;;
10529;SDS011;5313;48.834;9.228;2022-11-20T03:53:40;3.00;;;2.70;;
10529;SDS011;5313;48.834;9.228;2022-11-20T03:56:06;4.80;;;2.63;;
10529;SDS011;5313;48.834;9.228;2022-11-20T03:58:33;2.70;;;2.07;;
10529;SDS011;5313;48.834;9.228;2022-11-20T04:01:08;3.90;;;2.70;;
10529;SDS011;5313;48.834;9.228;2022-11-20T04:03:44;3.80;;;3.03;;
10529;SDS011;5313;48.834;9.228;2022-11-20T04:06:15;4.63;;;2.97;;
10529;SDS011;5313;48.834;9.228;2022-11-20T04:08:44;5.57;;;2.90;;
10529;SDS011;5313;48.834;9.228;2022-11-20T04:11:11;5.37;;;3.37;;
10529;SDS011;5313;48.834;9.228;2022-11-20T04:13:40;4.13;;;2.97;;
10529;SDS011;5313;48.834;9.228;2022-11-20T04:16:07;3.87;;;3.07;;
10529;SDS011;5313;48.834;9.228;2022-11-20T04:18:34;4.93;;;3.30;;
10529;SDS011;5313;48.834;9.228;2022-11-20T04:20:59;5.10;;;3.20;;
10529;SDS011;5313;48.834;9.228;2022-11-20T04:23:25;4.77;;;2.40;;
10529;SDS011;5313;48.834;9.228;2022-11-20T04:25:51;3.87;;;2.80;;
10529;SDS011;5313;48.834;9.228;2022-11-20T04:28:17;2.90;;;2.40;;
10529;SDS011;5313;48.834;9.228;2022-11-20T04:30:42;6.10;;;3.13;;
10529;SDS011;5313;48.834;9.228;2022-11-20T04:33:08;5.43;;;2.90;;
10529;SDS011;5313;48.834;9.228;2022-11-20T04:35:34;5.13;;;2.90;;
10529;SDS011;5313;48.834;9.228;2022-11-20T04:38:01;5.50;;;3.13;;
10529;SDS011;5313;48.834;9.228;2022-11-20T04:40:29;3.77;;;2.73;;
10529;SDS011;5313;48.834;9.228;2022-11-20T04:42:55;3.87;;;2.90;;
10529;SDS011;5313;48.834;9.228;2022-11-20T04:45:24;3.77;;;2.93;;
10529;SDS011;5313;48.834;9.228;2022-11-20T04:47:49;3.63;;;2.93;;
10529;SDS011;5313;48.834;9.228;2022-11-20T04:50:15;5.43;;;2.90;;
10529;SDS011;5313;48.834;9.228;2022-11-20T04:52:40;2.53;;;2.27;;
10529;SDS011;5313;48.834;9.228;2022-11-20T04:55:06;5.70;;;2.73;;
10529;SDS011;5313;48.834;9.228;2022-11-20T04:57:32;5.27;;;2.83;;
10529;SDS011;5313;48.834;9.228;2022-11-20T04:59:57;3.63;;;2.90;;
10529;SDS011;5313;48.834;9.228;2022-11-20T05:02:23;5.23;;;3.03;;
10529;SDS011;5313;48.834;9.228;2022-11-20T05:04:48;4.50;;;3.13;;
10529;SDS011;5313;48.834;9.228;2022-11-20T05:07:14;3.57;;;2.93;;
10529;SDS011;5313;48.834;9.228;2022-11-20T05:09:39;5.13;;;3.30;;
10529;SDS011;5313;48.834;9.228;2022-11-20T05:12:06;3.33;;;3.00;;
10529;SDS011;5313;48.834;9.228;2022-11-20T05:14:33;4.07;;;2.50;;
10529;SDS011;5313;48.834;9.228;2022-11-20T05:16:59;4.73;;;2.93;;
10529;SDS011;5313;48.834;9.228;2022-11-20T05:19:24;3.97;;;3.03;;
10529;SDS011;5313;48.834;9.228;2022-11-20T05:21:50;4.07;;;3.17;;
10529;SDS011;5313;48.834;9.228;2022-11-20T05:24:15;6.67;;;2.77;;
10529;SDS011;5313;48.834;9.228;2022-11-20T05:26:41;5.37;;;3.10;;
10529;SDS011;5313;48.834;9.228;2022-11-20T05:29:09;3.17;;;2.77;;
10529;SDS011;5313;48.834;9.228;2022-11-20T05:31:35;4.20;;;3.03;;
10529;SDS011;5313;48.834;9.228;2022-11-20T05:34:02;4.60;;;3.00;;
10529;SDS011;5313;48.834;9.228;2022-11-20T05:36:27;5.37;;;2.93;;
10529;SDS011;5313;48.834;9.228;2022-11-20T05:38:54;3.77;;;2.80;;
10529;SDS011;5313;48.834;9.228;2022-11-20T05:41:20;4.57;;;2.97;;
10529;SDS011;5313;48.834;9.228;2022-11-20T05:43:46;4.03;;;2.57;;
10529;SDS011;5313;48.834;9.228;2022-11-20T05:46:13;4.30;;;2.87;;
10529;SDS011;5313;48.834;9.228;2022-11-20T05:48:41;3.97;;;2.70;;
10529;SDS011;5313;48.834;9.228;2022-11-20T05:51:08;4.03;;;2.73;;
10529;SDS011;5313;48.834;9.228;2022-11-20T05:53:36;5.37;;;2.90;;
10529;SDS011;5313;48.834;9.228;2022-11-20T05:56:03;4.97;;;3.10;;
10529;SDS011;5313;48.834;9.228;2022-11-20T05:58:30;7.17;;;3.20;;
10529;SDS011;5313;48.834;9.228;2022-11-20T06:01:30;2.70;;;2.50;;
10529;SDS011;5313;48.834;9.228;2022-11-20T06:03:50;3.77;;;2.80;;
10529;SDS011;5313;48.834;9.228;2022-11-20T06:06:16;3.07;;;2.70;;
10529;SDS011;5313;48.834;9.228;2022-11-20T06:08:43;3.37;;;2.70;;
10529;SDS011;5313;48.834;9.228;2022-11-20T06:11:10;3.20;;;2.33;;
10529;SDS011;5313;48.834;9.228;2022-11-20T06:13:37;3.47;;;2.60;;
10529;SDS011;5313;48.834;9.228;2022-11-20T06:16:04;3.93;;;2.60;;
10529;SDS011;5313;48.834;9.228;2022-11-20T06:18:29;2.80;;;2.13;;
10529;SDS011;5313;48.834;9.228;2022-11-20T06:21:38;3.40;;;2.70;;
10529;SDS011;5313;48.834;9.228;2022-11-20T06:23:46;3.73;;;2.60;;
10529;SDS011;5313;48.834;9.228;2022-11-20T06:26:13;3.43;;;2.60;;
10529;SDS011;5313;48.834;9.228;2022-11-20T06:28:43;3.57;;;2.70;;
10529;SDS011;5313;48.834;9.228;2022-11-20T06:31:10;3.20;;;2.40;;
10529;SDS011;5313;48.834;9.228;2022-11-20T06:33:38;4.00;;;2.83;;
10529;SDS011;5313;48.834;9.228;2022-11-20T06:36:04;4.87;;;2.77;;
10529;SDS011;5313;48.834;9.228;2022-11-20T06:38:30;4.07;;;3.20;;
10529;SDS011;5313;48.834;9.228;2022-11-20T06:40:55;3.43;;;2.60;;
10529;SDS011;5313;48.834;9.228;2022-11-20T06:43:21;4.17;;;3.07;;
10529;SDS011;5313;48.834;9.228;2022-11-20T06:45:51;6.47;;;3.30;;
10529;SDS011;5313;48.834;9.228;2022-11-20T06:48:17;4.33;;;3.20;;
10529;SDS011;5313;48.834;9.228;2022-11-20T06:50:43;8.03;;;2.50;;
10529;SDS011;5313;48.834;9.228;2022-11-20T06:53:09;3.63;;;2.70;;
10529;SDS011;5313;48.834;9.228;2022-11-20T06:55:34;4.07;;;2.93;;
10529;SDS011;5313;48.834;9.228;2022-11-20T06:58:00;3.13;;;2.60;;
10529;SDS011;5313;48.834;9.228;2022-11-20T07:00:25;3.33;;;2.60;;
10529;SDS011;5313;48.834;9.228;2022-11-20T07:02:51;3.00;;;2.23;;
10529;SDS011;5313;48.834;9.228;2022-11-20T07:05:16;2.33;;;2.00;;
10529;SDS011;5313;48.834;9.228;2022-11-20T07:07:42;2.13;;;1.93;;
10529;SDS011;5313;48.834;9.228;2022-11-20T07:10:08;2.40;;;1.80;;
10529;SDS011;5313;48.834;9.228;2022-11-20T07:12:34;3.83;;;2.10;;
10529;SDS011;5313;48.834;9.228;2022-11-20T07:14:59;2.73;;;1.93;;
10529;SDS011;5313;48.834;9.228;2022-11-20T07:17:25;2.83;;;2.10;;
10529;SDS011;5313;48.834;9.228;2022-11-20T07:19:50;2.67;;;2.00;;
10529;SDS011;5313;48.834;9.228;2022-11-20T07:22:16;1.70;;;1.60;;
10529;SDS011;5313;48.834;9.228;2022-11-20T07:24:41;2.77;;;1.93;;
10529;SDS011;5313;48.834;9.228;2022-11-20T07:27:07;2.70;;;1.90;;
10529;SDS011;5313;48.834;9.228;2022-11-20T07:29:32;2.23;;;1.93;;
10529;SDS011;5313;48.834;9.228;2022-11-20T07:31:58;4.37;;;2.17;;
10529;SDS011;5313;48.834;9.228;2022-11-20T07:34:24;3.57;;;2.03;;
10529;SDS011;5313;48.834;9.228;2022-11-20T07:36:49;2.10;;;1.70;;
10529;SDS011;5313;48.834;9.228;2022-11-20T07:39:15;3.87;;;2.07;;
10529;SDS011;5313;48.834;9.228;2022-11-20T07:41:40;2.00;;;1.63;;
10529;SDS011;5313;48.834;9.228;2022-11-20T07:44:06;3.60;;;2.30;;
10529;SDS011;5313;48.834;9.228;2022-11-20T07:46:31;2.73;;;1.80;;
10529;SDS011;5313;48.834;9.228;2022-11-20T07:48:57;2.53;;;1.90;;
10529;SDS011;5313;48.834;9.228;2022-11-20T07:51:22;2.77;;;1.70;;
10529;SDS011;5313;48.834;9.228;2022-11-20T07:53:50;2.83;;;1.70;;
10529;SDS011;5313;48.834;9.228;2022-11-20T07:56:17;2.63;;;2.00;;
10529;SDS011;5313;48.834;9.228;2022-11-20T07:58:42;2.77;;;1.73;;
10529;SDS011;5313;48.834;9.228;2022-11-20T08:01:08;2.60;;;1.90;;
10529;SDS011;5313;48.834;9.228;2022-11-20T08:03:33;3.33;;;1.87;;
10529;SDS011;5313;48.834;9.228;2022-11-20T08:05:59;3.80;;;1.80;;
10529;SDS011;5313;48.834;9.228;2022-11-20T08:08:26;2.27;;;1.63;;
10529;SDS011;5313;48.834;9.228;2022-11-20T08:10:52;2.00;;;1.70;;
10529;SDS011;5313;48.834;9.228;2022-11-20T08:13:17;5.23;;;1.73;;
10529;SDS011;5313;48.834;9.228;2022-11-20T08:16:01;2.73;;;1.80;;
10529;SDS011;5313;48.834;9.228;2022-11-20T08:18:27;2.63;;;1.43;;
10529;SDS011;5313;48.834;9.228;2022-11-20T08:20:52;2.77;;;1.60;;
10529;SDS011;5313;48.834;9.228;2022-11-20T08:23:18;2.43;;;1.60;;
10529;SDS011;5313;48.834;9.228;2022-11-20T08:25:48;1.97;;;1.50;;
10529;SDS011;5313;48.834;9.228;2022-11-20T08:28:14;5.43;;;1.30;;
10529;SDS011;5313;48.834;9.228;2022-11-20T08:30:40;2.47;;;1.80;;
10529;SDS011;5313;48.834;9.228;2022-11-20T08:33:06;3.93;;;1.80;;
10529;SDS011;5313;48.834;9.228;2022-11-20T08:35:33;4.17;;;2.37;;
10529;SDS011;5313;48.834;9.228;2022-11-20T08:38:00;2.27;;;1.60;;
10529;SDS011;5313;48.834;9.228;2022-11-20T08:40:30;3.07;;;1.53;;
10529;SDS011;5313;48.834;9.228;2022-11-20T08:42:55;3.20;;;1.67;;
10529;SDS011;5313;48.834;9.228;2022-11-20T08:45:21;2.13;;;1.30;;
10529;SDS011;5313;48.834;9.228;2022-11-20T08:47:47;1.50;;;1.20;;
10529;SDS011;5313;48.834;9.228;2022-11-20T08:50:14;1.50;;;1.27;;
10529;SDS011;5313;48.834;9.228;2022-11-20T08:52:40;1.97;;;1.17;;
10529;SDS011;5313;48.834;9.228;2022-11-20T08:55:06;1.43;;;1.10;;
10529;SDS011;5313;48.834;9.228;2022-11-20T08:57:33;1.43;;;1.10;;
10529;SDS011;5313;48.834;9.228;2022-11-20T08:59:59;1.53;;;1.10;;
10529;SDS011;5313;48.834;9.228;2022-11-20T09:02:25;1.53;;;1.03;;
10529;SDS011;5313;48.834;9.228;2022-11-20T09:04:50;1.43;;;0.90;;
10529;SDS011;5313;48.834;9.228;2022-11-20T09:07:16;1.10;;;0.80;;
10529;SDS011;5313;48.834;9.228;2022-11-20T09:09:41;1.03;;;0.80;;
10529;SDS011;5313;48.834;9.228;2022-11-20T09:12:07;0.60;;;0.60;;
10529;SDS011;5313;48.834;9.228;2022-11-20T09:14:33;0.90;;;0.80;;
10529;SDS011;5313;48.834;9.228;2022-11-20T09:16:58;1.00;;;0.70;;
10529;SDS011;5313;48.834;9.228;2022-11-20T09:19:24;1.27;;;0.90;;
10529;SDS011;5313;48.834;9.228;2022-11-20T09:21:49;0.70;;;0.63;;
10529;SDS011;5313;48.834;9.228;2022-11-20T09:24:16;1.73;;;1.20;;
10529;SDS011;5313;48.834;9.228;2022-11-20T09:26:41;0.70;;;0.60;;
10529;SDS011;5313;48.834;9.228;2022-11-20T09:29:07;0.77;;;0.50;;
10529;SDS011;5313;48.834;9.228;2022-11-20T09:31:32;0.50;;;0.50;;
10529;SDS011;5313;48.834;9.228;2022-11-20T09:33:58;0.90;;;0.60;;
10529;SDS011;5313;48.834;9.228;2022-11-20T09:36:23;2.30;;;0.60;;
10529;SDS011;5313;48.834;9.228;2022-11-20T09:38:49;0.60;;;0.50;;
10529;SDS011;5313;48.834;9.228;2022-11-20T09:44:22;2.00;;;0.70;;
10529;SDS011;5313;48.834;9.228;2022-11-20T09:47:11;0.60;;;0.50;;
10529;SDS011;5313;48.834;9.228;2022-11-20T09:53:04;1.00;;;0.90;;
10529;SDS011;5313;48.834;9.228;2022-11-20T09:55:40;1.37;;;0.70;;
10529;SDS011;5313;48.834;9.228;2022-11-20T09:58:06;1.00;;;0.70;;
10529;SDS011;5313;48.834;9.228;2022-11-20T10:00:38;0.80;;;0.70;;
10529;SDS011;5313;48.834;9.228;2022-11-20T10:03:06;0.90;;;0.73;;
10529;SDS011;5313;48.834;9.228;2022-11-20T10:05:46;0.70;;;0.70;;
10529;SDS011;5313;48.834;9.228;2022-11-20T10:08:25;0.90;;;0.70;;
10529;SDS011;5313;48.834;9.228;2022-11-20T10:11:11;1.43;;;0.70;;
10529;SDS011;5313;48.834;9.228;2022-11-20T10:22:42;0.80;;;0.70;;
10529;SDS011;5313;48.834;9.228;2022-11-20T10:25:13;1.10;;;0.93;;
10529;SDS011;5313;48.834;9.228;2022-11-20T10:30:45;2.80;;;0.83;;
10529;SDS011;5313;48.834;9.228;2022-11-20T10:33:21;1.47;;;0.93;;
10529;SDS011;5313;48.834;9.228;2022-11-20T10:38:21;1.10;;;1.00;;
10529;SDS011;5313;48.834;9.228;2022-11-20T10:40:52;1.00;;;0.83;;
10529;SDS011;5313;48.834;9.228;2022-11-20T10:43:44;1.00;;;0.80;;
10529;SDS011;5313;48.834;9.228;2022-11-20T10:46:15;1.00;;;0.90;;
10529;SDS011;5313;48.834;9.228;2022-11-20T10:48:43;1.13;;;0.83;;
10529;SDS011;5313;48.834;9.228;2022-11-20T10:53:56;0.90;;;0.80;;
10529;SDS011;5313;48.834;9.228;2022-11-20T10:56:38;1.83;;;0.90;;
10529;SDS011;5313;48.834;9.228;2022-11-20T11:01:47;2.53;;;0.90;;
10529;SDS011;5313;48.834;9.228;2022-11-20T11:04:55;2.43;;;1.27;;
10529;SDS011;5313;48.834;9.228;2022-11-20T11:07:27;2.50;;;1.10;;
10529;SDS011;5313;48.834;9.228;2022-11-20T11:09:59;2.37;;;1.10;;
10529;SDS011;5313;48.834;9.228;2022-11-20T11:12:26;1.60;;;1.00;;
10529;SDS011;5313;48.834;9.228;2022-11-20T11:14:54;1.40;;;1.10;;
10529;SDS011;5313;48.834;9.228;2022-11-20T11:17:27;1.43;;;1.20;;
10529;SDS011;5313;48.834;9.228;2022-11-20T11:22:42;3.43;;;1.27;;
10529;SDS011;5313;48.834;9.228;2022-11-20T11:25:21;1.10;;;0.90;;
10529;SDS011;5313;48.834;9.228;2022-11-20T11:28:19;1.23;;;1.10;;
10529;SDS011;5313;48.834;9.228;2022-11-20T11:30:47;2.60;;;1.20;;
10529;SDS011;5313;48.834;9.228;2022-11-20T11:33:22;1.43;;;1.20;;
10529;SDS011;5313;48.834;9.228;2022-11-20T11:35:55;1.87;;;1.20;;
10529;SDS011;5313;48.834;9.228;2022-11-20T11:41:06;2.33;;;1.07;;
10529;SDS011;5313;48.834;9.228;2022-11-20T11:43:37;2.00;;;1.13;;
10529;SDS011;5313;48.834;9.228;2022-11-20T11:48:57;1.80;;;1.20;;
10529;SDS011;5313;48.834;9.228;2022-11-20T11:54:58;1.63;;;1.30;;
10529;SDS011;5313;48.834;9.228;2022-11-20T12:00:05;3.57;;;1.50;;
10529;SDS011;5313;48.834;9.228;2022-11-20T12:02:38;2.37;;;1.30;;
10529;SDS011;5313;48.834;9.228;2022-11-20T12:05:16;2.07;;;1.27;;
10529;SDS011;5313;48.834;9.228;2022-11-20T12:07:47;2.90;;;1.20;;
10529;SDS011;5313;48.834;9.228;2022-11-20T12:10:23;2.67;;;1.10;;
10529;SDS011;5313;48.834;9.228;2022-11-20T12:13:02;2.13;;;1.13;;
10529;SDS011;5313;48.834;9.228;2022-11-20T12:15:37;2.23;;;1.23;;
10529;SDS011;5313;48.834;9.228;2022-11-20T12:18:09;3.23;;;1.30;;
10529;SDS011;5313;48.834;9.228;2022-11-20T12:20:41;1.87;;;0.93;;
10529;SDS011;5313;48.834;9.228;2022-11-20T12:23:22;1.73;;;1.20;;
10529;SDS011;5313;48.834;9.228;2022-11-20T12:25:56;2.10;;;1.10;;
10529;SDS011;5313;48.834;9.228;2022-11-20T12:28:27;1.77;;;1.07;;
10529;SDS011;5313;48.834;9.228;2022-11-20T12:31:14;2.10;;;1.07;;
10529;SDS011;5313;48.834;9.228;2022-11-20T12:39:27;3.33;;;1.00;;
10529;SDS011;5313;48.834;9.228;2022-11-20T12:58:53;1.60;;;0.90;;
10529;SDS011;5313;48.834;9.228;2022-11-20T13:01:32;1.93;;;0.90;;
10529;SDS011;5313;48.834;9.228;2022-11-20T13:07:10;0.87;;;0.53;;
10529;SDS011;5313;48.834;9.228;2022-11-20T13:09:41;1.00;;;0.70;;
10529;SDS011;5313;48.834;9.228;2022-11-20T13:15:21;1.50;;;0.83;;
10529;SDS011;5313;48.834;9.228;2022-11-20T13:18:04;2.43;;;0.60;;
10529;SDS011;5313;48.834;9.228;2022-11-20T13:20:33;3.20;;;0.90;;
10529;SDS011;5313;48.834;9.228;2022-11-20T13:22:59;1.90;;;0.80;;
10529;SDS011;5313;48.834;9.228;2022-11-20T13:25:35;2.50;;;0.93;;
10529;SDS011;5313;48.834;9.228;2022-11-20T13:30:36;1.10;;;0.67;;
10529;SDS011;5313;48.834;9.228;2022-11-20T13:33:23;2.20;;;0.73;;
10529;SDS011;5313;48.834;9.228;2022-11-20T13:36:00;3.10;;;0.93;;
10529;SDS011;5313;48.834;9.228;2022-11-20T13:38:49;1.10;;;0.70;;
10529;SDS011;5313;48.834;9.228;2022-11-20T13:44:34;2.20;;;0.80;;
10529;SDS011;5313;48.834;9.228;2022-11-20T13:47:21;2.73;;;0.90;;
10529;SDS011;5313;48.834;9.228;2022-11-20T13:49:49;2.13;;;0.70;;
10529;SDS011;5313;48.834;9.228;2022-11-20T13:54:52;1.60;;;0.90;;
10529;SDS011;5313;48.834;9.228;2022-11-20T14:00:21;1.23;;;0.80;;
10529;SDS011;5313;48.834;9.228;2022-11-20T14:03:04;1.37;;;0.70;;
10529;SDS011;5313;48.834;9.228;2022-11-20T14:05:39;1.97;;;0.70;;
10529;SDS011;5313;48.834;9.228;2022-11-20T14:08:15;1.50;;;0.90;;
10529;SDS011;5313;48.834;9.228;2022-11-20T14:11:04;2.07;;;0.87;;
10529;SDS011;5313;48.834;9.228;2022-11-20T14:13:31;1.60;;;0.80;;
10529;SDS011;5313;48.834;9.228;2022-11-20T14:15:56;2.57;;;0.90;;
10529;SDS011;5313;48.834;9.228;2022-11-20T14:18:22;3.13;;;0.73;;
10529;SDS011;5313;48.834;9.228;2022-11-20T14:20:50;1.23;;;0.80;;
10529;SDS011;5313;48.834;9.228;2022-11-20T14:23:25;1.33;;;0.93;;
10529;SDS011;5313;48.834;9.228;2022-11-20T14:25:52;2.30;;;1.00;;
10529;SDS011;5313;48.834;9.228;2022-11-20T14:28:24;1.43;;;1.07;;
10529;SDS011;5313;48.834;9.228;2022-11-20T14:30:54;1.10;;;0.80;;
10529;SDS011;5313;48.834;9.228;2022-11-20T14:33:21;1.50;;;1.00;;
10529;SDS011;5313;48.834;9.228;2022-11-20T14:35:50;1.13;;;0.90;;
10529;SDS011;5313;48.834;9.228;2022-11-20T14:38:19;1.60;;;0.97;;
10529;SDS011;5313;48.834;9.228;2022-11-20T14:40:49;2.30;;;1.10;;
10529;SDS011;5313;48.834;9.228;2022-11-20T14:43:19;1.70;;;1.00;;
10529;SDS011;5313;48.834;9.228;2022-11-20T14:45:55;1.97;;;1.00;;
10529;SDS011;5313;48.834;9.228;2022-11-20T14:48:37;2.03;;;0.93;;
10529;SDS011;5313;48.834;9.228;2022-11-20T14:51:11;3.27;;;1.20;;
10529;SDS011;5313;48.834;9.228;2022-11-20T14:53:51;1.63;;;0.80;;
10529;SDS011;5313;48.834;9.228;2022-11-20T14:56:21;1.97;;;0.90;;
10529;SDS011;5313;48.834;9.228;2022-11-20T14:58:55;2.00;;;1.30;;
10529;SDS011;5313;48.834;9.228;2022-11-20T15:01:25;2.70;;;1.43;;
10529;SDS011;5313;48.834;9.228;2022-11-20T15:04:13;2.83;;;1.20;;
10529;SDS011;5313;48.834;9.228;2022-11-20T15:06:49;2.10;;;1.20;;
10529;SDS011;5313;48.834;9.228;2022-11-20T15:09:16;3.07;;;1.20;;
10529;SDS011;5313;48.834;9.228;2022-11-20T15:11:50;2.57;;;1.40;;
10529;SDS011;5313;48.834;9.228;2022-11-20T15:14:21;3.67;;;1.10;;
10529;SDS011;5313;48.834;9.228;2022-11-20T15:16:48;1.40;;;1.10;;
10529;SDS011;5313;48.834;9.228;2022-11-20T15:19:18;2.00;;;1.37;;
10529;SDS011;5313;48.834;9.228;2022-11-20T15:21:46;4.90;;;1.30;;
10529;SDS011;5313;48.834;9.228;2022-11-20T15:24:11;1.17;;;0.90;;
10529;SDS011;5313;48.834;9.228;2022-11-20T15:26:37;2.43;;;1.20;;
10529;SDS011;5313;48.834;9.228;2022-11-20T15:29:09;2.27;;;1.07;;
10529;SDS011;5313;48.834;9.228;2022-11-20T15:31:37;3.47;;;1.20;;
10529;SDS011;5313;48.834;9.228;2022-11-20T15:34:13;2.40;;;1.10;;
10529;SDS011;5313;48.834;9.228;2022-11-20T15:36:40;1.70;;;0.93;;
10529;SDS011;5313;48.834;9.228;2022-11-20T15:39:07;1.43;;;1.33;;
10529;SDS011;5313;48.834;9.228;2022-11-20T15:41:36;3.77;;;1.30;;
10529;SDS011;5313;48.834;9.228;2022-11-20T15:44:02;3.30;;;1.30;;
10529;SDS011;5313;48.834;9.228;2022-11-20T15:46:29;3.83;;;1.50;;
10529;SDS011;5313;48.834;9.228;2022-11-20T15:49:03;4.87;;;2.47;;
10529;SDS011;5313;48.834;9.228;2022-11-20T15:51:30;3.33;;;2.13;;
10529;SDS011;5313;48.834;9.228;2022-11-20T15:53:59;4.30;;;2.10;;
10529;SDS011;5313;48.834;9.228;2022-11-20T15:56:25;3.23;;;2.23;;
10529;SDS011;5313;48.834;9.228;2022-11-20T15:58:51;3.03;;;2.00;;
10529;SDS011;5313;48.834;9.228;2022-11-20T16:01:18;3.43;;;1.87;;
10529;SDS011;5313;48.834;9.228;2022-11-20T16:03:46;2.77;;;1.63;;
10529;SDS011;5313;48.834;9.228;2022-11-20T16:06:12;2.90;;;1.83;;
10529;SDS011;5313;48.834;9.228;2022-11-20T16:08:37;2.93;;;1.47;;
10529;SDS011;5313;48.834;9.228;2022-11-20T16:11:03;2.63;;;1.70;;
10529;SDS011;5313;48.834;9.228;2022-11-20T16:13:30;2.97;;;1.70;;
10529;SDS011;5313;48.834;9.228;2022-11-20T16:16:19;4.87;;;2.10;;
10529;SDS011;5313;48.834;9.228;2022-11-20T16:18:48;3.97;;;2.20;;
10529;SDS011;5313;48.834;9.228;2022-11-20T16:21:14;3.80;;;2.00;;
10529;SDS011;5313;48.834;9.228;2022-11-20T16:23:40;3.63;;;2.00;;
10529;SDS011;5313;48.834;9.228;2022-11-20T16:26:13;3.37;;;2.03;;
10529;SDS011;5313;48.834;9.228;2022-11-20T16:28:41;4.47;;;2.47;;
10529;SDS011;5313;48.834;9.228;2022-11-20T16:31:08;4.73;;;2.50;;
10529;SDS011;5313;48.834;9.228;2022-11-20T16:33:35;5.67;;;2.30;;
10529;SDS011;5313;48.834;9.228;2022-11-20T16:36:10;4.03;;;2.50;;